sensor_id;sensor_type;location;lat;lon;timestamp;temperature;humidity
32706;DHT22;19094;50.972;3.538;2023-03-23T00:00:28;15.50;68.20
32706;DHT22;19094;50.972;3.538;2023-03-23T00:02:55;15.50;68.50
32706;DHT22;19094;50.972;3.538;2023-03-23T00:05:20;15.50;68.40
32706;DHT22;19094;50.972;3.538;2023-03-23T00:07:46;15.60;68.20
32706;DHT22;19094;50.972;3.538;2023-03-23T00:10:12;15.50;68.10
32706;DHT22;19094;50.972;3.538;2023-03-23T00:12:37;15.50;68.50
32706;DHT22;19094;50.972;3.538;2023-03-23T00:15:08;15.50;68.50
32706;DHT22;19094;50.972;3.538;2023-03-23T00:17:34;15.40;68.60
32706;DHT22;19094;50.972;3.538;2023-03-23T00:20:01;15.50;68.80
32706;DHT22;19094;50.972;3.538;2023-03-23T00:22:29;15.50;68.50
32706;DHT22;19094;50.972;3.538;2023-03-23T00:24:55;15.50;68.70
32706;DHT22;19094;50.972;3.538;2023-03-23T00:27:21;15.40;68.60
32706;DHT22;19094;50.972;3.538;2023-03-23T00:29:50;15.40;68.80
32706;DHT22;19094;50.972;3.538;2023-03-23T00:32:23;15.40;69.00
32706;DHT22;19094;50.972;3.538;2023-03-23T00:34:53;15.50;68.80
32706;DHT22;19094;50.972;3.538;2023-03-23T00:37:19;15.50;68.70
32706;DHT22;19094;50.972;3.538;2023-03-23T00:39:45;15.50;68.50
32706;DHT22;19094;50.972;3.538;2023-03-23T00:42:15;15.50;68.40
32706;DHT22;19094;50.972;3.538;2023-03-23T00:44:42;15.50;68.50
32706;DHT22;19094;50.972;3.538;2023-03-23T00:47:09;15.50;68.40
32706;DHT22;19094;50.972;3.538;2023-03-23T00:49:35;15.50;68.30
32706;DHT22;19094;50.972;3.538;2023-03-23T00:52:02;15.50;68.40
32706;DHT22;19094;50.972;3.538;2023-03-23T00:54:28;15.50;68.40
32706;DHT22;19094;50.972;3.538;2023-03-23T00:56:54;15.50;68.50
32706;DHT22;19094;50.972;3.538;2023-03-23T00:59:20;15.50;68.70
32706;DHT22;19094;50.972;3.538;2023-03-23T01:01:47;15.50;68.60
32706;DHT22;19094;50.972;3.538;2023-03-23T01:04:13;15.50;68.60
32706;DHT22;19094;50.972;3.538;2023-03-23T01:06:42;15.50;68.70
32706;DHT22;19094;50.972;3.538;2023-03-23T01:09:11;15.40;68.70
32706;DHT22;19094;50.972;3.538;2023-03-23T01:11:43;15.40;68.70
32706;DHT22;19094;50.972;3.538;2023-03-23T01:14:10;15.50;68.70
32706;DHT22;19094;50.972;3.538;2023-03-23T01:16:35;15.50;68.50
32706;DHT22;19094;50.972;3.538;2023-03-23T01:19:01;15.50;68.80
32706;DHT22;19094;50.972;3.538;2023-03-23T01:21:27;15.50;68.70
32706;DHT22;19094;50.972;3.538;2023-03-23T01:23:52;15.50;68.60
32706;DHT22;19094;50.972;3.538;2023-03-23T01:26:21;15.50;68.50
32706;DHT22;19094;50.972;3.538;2023-03-23T01:28:48;15.50;68.40
32706;DHT22;19094;50.972;3.538;2023-03-23T01:31:16;15.40;68.60
32706;DHT22;19094;50.972;3.538;2023-03-23T01:33:43;15.40;68.80
32706;DHT22;19094;50.972;3.538;2023-03-23T01:36:14;15.40;68.80
32706;DHT22;19094;50.972;3.538;2023-03-23T01:38:42;15.50;68.70
32706;DHT22;19094;50.972;3.538;2023-03-23T01:41:09;15.50;68.50
32706;DHT22;19094;50.972;3.538;2023-03-23T01:43:36;15.40;68.60
32706;DHT22;19094;50.972;3.538;2023-03-23T01:46:02;15.40;68.70
32706;DHT22;19094;50.972;3.538;2023-03-23T01:48:35;15.50;68.50
32706;DHT22;19094;50.972;3.538;2023-03-23T01:51:12;15.50;68.40
32706;DHT22;19094;50.972;3.538;2023-03-23T01:54:01;15.50;68.60
32706;DHT22;19094;50.972;3.538;2023-03-23T01:56:32;15.50;68.90
32706;DHT22;19094;50.972;3.538;2023-03-23T01:59:04;15.50;68.70
32706;DHT22;19094;50.972;3.538;2023-03-23T02:01:30;15.50;68.60
32706;DHT22;19094;50.972;3.538;2023-03-23T02:03:56;15.50;68.30
32706;DHT22;19094;50.972;3.538;2023-03-23T02:06:23;15.50;68.20
32706;DHT22;19094;50.972;3.538;2023-03-23T02:08:50;15.50;68.30
32706;DHT22;19094;50.972;3.538;2023-03-23T02:11:19;15.50;68.30
32706;DHT22;19094;50.972;3.538;2023-03-23T02:13:46;15.60;68.10
32706;DHT22;19094;50.972;3.538;2023-03-23T02:16:22;15.50;67.90
32706;DHT22;19094;50.972;3.538;2023-03-23T02:19:30;15.50;68.00
32706;DHT22;19094;50.972;3.538;2023-03-23T02:27:20;15.40;68.30
32706;DHT22;19094;50.972;3.538;2023-03-23T02:30:03;15.50;68.00
32706;DHT22;19094;50.972;3.538;2023-03-23T02:35:35;15.50;67.90
32706;DHT22;19094;50.972;3.538;2023-03-23T02:38:06;15.40;68.10
32706;DHT22;19094;50.972;3.538;2023-03-23T02:40:40;15.40;68.00
32706;DHT22;19094;50.972;3.538;2023-03-23T02:43:10;15.40;68.00
32706;DHT22;19094;50.972;3.538;2023-03-23T02:45:38;15.50;67.80
32706;DHT22;19094;50.972;3.538;2023-03-23T02:48:05;15.40;67.70
32706;DHT22;19094;50.972;3.538;2023-03-23T02:50:33;15.50;67.80
32706;DHT22;19094;50.972;3.538;2023-03-23T02:53:01;15.50;67.60
32706;DHT22;19094;50.972;3.538;2023-03-23T02:55:28;15.40;67.80
32706;DHT22;19094;50.972;3.538;2023-03-23T02:57:55;15.40;67.70
32706;DHT22;19094;50.972;3.538;2023-03-23T03:00:21;15.40;67.90
32706;DHT22;19094;50.972;3.538;2023-03-23T03:02:50;15.50;67.70
32706;DHT22;19094;50.972;3.538;2023-03-23T03:16:01;15.60;67.80
32706;DHT22;19094;50.972;3.538;2023-03-23T03:21:21;15.40;67.70
32706;DHT22;19094;50.972;3.538;2023-03-23T03:23:52;15.50;67.80
32706;DHT22;19094;50.972;3.538;2023-03-23T03:26:20;15.40;68.20
32706;DHT22;19094;50.972;3.538;2023-03-23T03:28:47;15.40;68.10
32706;DHT22;19094;50.972;3.538;2023-03-23T03:31:16;15.40;68.00
32706;DHT22;19094;50.972;3.538;2023-03-23T03:33:43;15.40;68.10
32706;DHT22;19094;50.972;3.538;2023-03-23T03:36:18;15.50;67.90
32706;DHT22;19094;50.972;3.538;2023-03-23T03:38:48;15.50;67.70
32706;DHT22;19094;50.972;3.538;2023-03-23T03:41:15;15.50;67.80
32706;DHT22;19094;50.972;3.538;2023-03-23T03:43:41;15.40;67.80
32706;DHT22;19094;50.972;3.538;2023-03-23T03:46:07;15.40;67.80
32706;DHT22;19094;50.972;3.538;2023-03-23T03:48:33;15.40;67.60
32706;DHT22;19094;50.972;3.538;2023-03-23T03:50:59;15.50;67.70
32706;DHT22;19094;50.972;3.538;2023-03-23T03:53:26;15.40;67.90
32706;DHT22;19094;50.972;3.538;2023-03-23T03:55:52;15.40;67.80
32706;DHT22;19094;50.972;3.538;2023-03-23T03:58:21;15.40;67.80
32706;DHT22;19094;50.972;3.538;2023-03-23T04:00:47;15.40;67.70
32706;DHT22;19094;50.972;3.538;2023-03-23T04:03:14;15.50;67.60
32706;DHT22;19094;50.972;3.538;2023-03-23T04:05:40;15.50;67.50
32706;DHT22;19094;50.972;3.538;2023-03-23T04:08:07;15.50;67.40
32706;DHT22;19094;50.972;3.538;2023-03-23T04:10:33;15.50;67.40
32706;DHT22;19094;50.972;3.538;2023-03-23T04:12:59;15.50;67.50
32706;DHT22;19094;50.972;3.538;2023-03-23T04:15:25;15.50;67.40
32706;DHT22;19094;50.972;3.538;2023-03-23T04:17:51;15.50;67.50
32706;DHT22;19094;50.972;3.538;2023-03-23T04:20:17;15.50;67.40
32706;DHT22;19094;50.972;3.538;2023-03-23T04:22:44;15.50;67.50
32706;DHT22;19094;50.972;3.538;2023-03-23T04:25:12;15.40;67.50
32706;DHT22;19094;50.972;3.538;2023-03-23T04:27:39;15.40;67.40
32706;DHT22;19094;50.972;3.538;2023-03-23T04:30:09;15.40;67.30
32706;DHT22;19094;50.972;3.538;2023-03-23T04:32:36;15.50;67.50
32706;DHT22;19094;50.972;3.538;2023-03-23T04:35:06;15.50;67.30
32706;DHT22;19094;50.972;3.538;2023-03-23T04:37:32;15.50;67.40
32706;DHT22;19094;50.972;3.538;2023-03-23T04:39:59;15.50;67.70
32706;DHT22;19094;50.972;3.538;2023-03-23T04:42:30;15.40;67.60
32706;DHT22;19094;50.972;3.538;2023-03-23T04:44:57;15.40;67.70
32706;DHT22;19094;50.972;3.538;2023-03-23T04:47:24;15.40;67.80
32706;DHT22;19094;50.972;3.538;2023-03-23T04:49:55;15.40;67.80
32706;DHT22;19094;50.972;3.538;2023-03-23T04:52:21;15.40;68.10
32706;DHT22;19094;50.972;3.538;2023-03-23T04:54:47;15.40;68.40
32706;DHT22;19094;50.972;3.538;2023-03-23T04:57:13;15.50;68.40
32706;DHT22;19094;50.972;3.538;2023-03-23T04:59:40;15.40;68.30
32706;DHT22;19094;50.972;3.538;2023-03-23T05:02:07;15.40;68.40
32706;DHT22;19094;50.972;3.538;2023-03-23T05:04:32;15.30;68.50
32706;DHT22;19094;50.972;3.538;2023-03-23T05:06:59;15.40;68.60
32706;DHT22;19094;50.972;3.538;2023-03-23T05:09:24;15.30;68.70
32706;DHT22;19094;50.972;3.538;2023-03-23T05:11:50;15.30;68.90
32706;DHT22;19094;50.972;3.538;2023-03-23T05:14:16;15.30;69.20
32706;DHT22;19094;50.972;3.538;2023-03-23T05:16:41;15.30;69.40
32706;DHT22;19094;50.972;3.538;2023-03-23T05:19:07;15.20;69.30
32706;DHT22;19094;50.972;3.538;2023-03-23T05:21:33;15.20;70.00
32706;DHT22;19094;50.972;3.538;2023-03-23T05:23:59;15.10;70.40
32706;DHT22;19094;50.972;3.538;2023-03-23T05:26:26;15.10;70.80
32706;DHT22;19094;50.972;3.538;2023-03-23T05:28:55;15.10;70.70
32706;DHT22;19094;50.972;3.538;2023-03-23T05:31:21;15.10;70.00
32706;DHT22;19094;50.972;3.538;2023-03-23T05:33:48;15.10;69.80
32706;DHT22;19094;50.972;3.538;2023-03-23T05:36:14;15.10;70.00
32706;DHT22;19094;50.972;3.538;2023-03-23T05:38:40;15.00;70.00
32706;DHT22;19094;50.972;3.538;2023-03-23T05:41:14;15.00;70.20
32706;DHT22;19094;50.972;3.538;2023-03-23T05:43:39;15.00;70.10
32706;DHT22;19094;50.972;3.538;2023-03-23T05:46:05;14.90;70.10
32706;DHT22;19094;50.972;3.538;2023-03-23T05:48:32;14.90;70.20
32706;DHT22;19094;50.972;3.538;2023-03-23T05:50:58;14.90;70.20
32706;DHT22;19094;50.972;3.538;2023-03-23T05:53:24;14.90;70.00
32706;DHT22;19094;50.972;3.538;2023-03-23T05:55:50;14.90;70.10
32706;DHT22;19094;50.972;3.538;2023-03-23T05:58:15;14.90;70.10
32706;DHT22;19094;50.972;3.538;2023-03-23T06:00:41;14.90;70.00
32706;DHT22;19094;50.972;3.538;2023-03-23T06:03:07;14.80;70.10
32706;DHT22;19094;50.972;3.538;2023-03-23T06:05:32;14.80;70.30
32706;DHT22;19094;50.972;3.538;2023-03-23T06:07:58;14.80;70.30
32706;DHT22;19094;50.972;3.538;2023-03-23T06:10:24;14.80;70.00
32706;DHT22;19094;50.972;3.538;2023-03-23T06:12:50;14.80;70.10
32706;DHT22;19094;50.972;3.538;2023-03-23T06:15:19;14.80;70.20
32706;DHT22;19094;50.972;3.538;2023-03-23T06:17:45;14.70;70.10
32706;DHT22;19094;50.972;3.538;2023-03-23T06:20:11;14.70;70.10
32706;DHT22;19094;50.972;3.538;2023-03-23T06:22:37;14.70;70.20
32706;DHT22;19094;50.972;3.538;2023-03-23T06:25:06;14.60;70.60
32706;DHT22;19094;50.972;3.538;2023-03-23T06:27:32;14.60;70.90
32706;DHT22;19094;50.972;3.538;2023-03-23T06:29:58;14.60;70.90
32706;DHT22;19094;50.972;3.538;2023-03-23T06:32:28;14.50;71.10
32706;DHT22;19094;50.972;3.538;2023-03-23T06:34:54;14.50;71.20
32706;DHT22;19094;50.972;3.538;2023-03-23T06:37:20;14.50;71.10
32706;DHT22;19094;50.972;3.538;2023-03-23T06:39:46;14.50;71.10
32706;DHT22;19094;50.972;3.538;2023-03-23T06:42:12;14.50;71.00
32706;DHT22;19094;50.972;3.538;2023-03-23T06:44:38;14.50;71.00
32706;DHT22;19094;50.972;3.538;2023-03-23T06:47:04;14.40;71.10
32706;DHT22;19094;50.972;3.538;2023-03-23T06:49:30;14.40;71.00
32706;DHT22;19094;50.972;3.538;2023-03-23T06:51:55;14.50;70.70
32706;DHT22;19094;50.972;3.538;2023-03-23T06:54:26;14.50;70.80
32706;DHT22;19094;50.972;3.538;2023-03-23T06:56:52;14.50;70.90
32706;DHT22;19094;50.972;3.538;2023-03-23T06:59:18;14.50;70.70
32706;DHT22;19094;50.972;3.538;2023-03-23T07:01:44;14.50;70.90
32706;DHT22;19094;50.972;3.538;2023-03-23T07:04:12;14.50;70.80
32706;DHT22;19094;50.972;3.538;2023-03-23T07:06:37;14.50;71.00
32706;DHT22;19094;50.972;3.538;2023-03-23T07:09:03;14.40;70.80
32706;DHT22;19094;50.972;3.538;2023-03-23T07:11:29;14.50;70.70
32706;DHT22;19094;50.972;3.538;2023-03-23T07:13:55;14.50;70.60
32706;DHT22;19094;50.972;3.538;2023-03-23T07:16:21;14.50;70.60
32706;DHT22;19094;50.972;3.538;2023-03-23T07:18:47;14.50;71.00
32706;DHT22;19094;50.972;3.538;2023-03-23T07:21:13;14.40;71.90
32706;DHT22;19094;50.972;3.538;2023-03-23T07:23:38;14.50;71.30
32706;DHT22;19094;50.972;3.538;2023-03-23T07:26:04;14.50;71.00
32706;DHT22;19094;50.972;3.538;2023-03-23T07:28:30;14.60;70.50
32706;DHT22;19094;50.972;3.538;2023-03-23T07:30:56;14.60;70.30
32706;DHT22;19094;50.972;3.538;2023-03-23T07:33:22;14.50;70.60
32706;DHT22;19094;50.972;3.538;2023-03-23T07:35:47;14.50;71.10
32706;DHT22;19094;50.972;3.538;2023-03-23T07:38:13;14.40;71.10
32706;DHT22;19094;50.972;3.538;2023-03-23T07:40:39;14.40;71.30
32706;DHT22;19094;50.972;3.538;2023-03-23T07:43:05;14.30;71.40
32706;DHT22;19094;50.972;3.538;2023-03-23T07:45:32;14.30;71.70
32706;DHT22;19094;50.972;3.538;2023-03-23T07:47:59;14.30;71.60
32706;DHT22;19094;50.972;3.538;2023-03-23T07:50:25;14.30;71.70
32706;DHT22;19094;50.972;3.538;2023-03-23T07:52:54;14.30;71.70
32706;DHT22;19094;50.972;3.538;2023-03-23T07:55:21;14.30;71.60
32706;DHT22;19094;50.972;3.538;2023-03-23T07:57:47;14.40;71.70
32706;DHT22;19094;50.972;3.538;2023-03-23T08:00:15;14.30;71.50
32706;DHT22;19094;50.972;3.538;2023-03-23T08:02:44;14.40;71.60
32706;DHT22;19094;50.972;3.538;2023-03-23T08:05:10;14.40;71.50
32706;DHT22;19094;50.972;3.538;2023-03-23T08:07:36;14.40;71.60
32706;DHT22;19094;50.972;3.538;2023-03-23T08:10:02;14.40;71.50
32706;DHT22;19094;50.972;3.538;2023-03-23T08:12:28;14.40;71.60
32706;DHT22;19094;50.972;3.538;2023-03-23T08:14:54;14.40;71.40
32706;DHT22;19094;50.972;3.538;2023-03-23T08:17:20;14.50;71.70
32706;DHT22;19094;50.972;3.538;2023-03-23T08:19:46;14.50;71.50
32706;DHT22;19094;50.972;3.538;2023-03-23T08:22:12;14.50;71.20
32706;DHT22;19094;50.972;3.538;2023-03-23T08:24:38;14.50;71.30
32706;DHT22;19094;50.972;3.538;2023-03-23T08:27:04;14.50;71.10
32706;DHT22;19094;50.972;3.538;2023-03-23T08:29:30;14.60;71.00
32706;DHT22;19094;50.972;3.538;2023-03-23T08:31:57;14.60;70.80
32706;DHT22;19094;50.972;3.538;2023-03-23T08:34:23;14.70;70.60
32706;DHT22;19094;50.972;3.538;2023-03-23T08:36:49;14.60;70.70
32706;DHT22;19094;50.972;3.538;2023-03-23T08:39:17;14.60;71.00
32706;DHT22;19094;50.972;3.538;2023-03-23T08:41:44;14.60;70.80
32706;DHT22;19094;50.972;3.538;2023-03-23T08:44:10;14.70;70.50
32706;DHT22;19094;50.972;3.538;2023-03-23T08:46:36;14.80;70.70
32706;DHT22;19094;50.972;3.538;2023-03-23T08:49:02;14.80;70.00
32706;DHT22;19094;50.972;3.538;2023-03-23T08:51:27;14.90;70.20
32706;DHT22;19094;50.972;3.538;2023-03-23T08:53:53;14.90;70.10
32706;DHT22;19094;50.972;3.538;2023-03-23T08:56:19;14.90;70.00
32706;DHT22;19094;50.972;3.538;2023-03-23T08:58:45;14.90;69.90
32706;DHT22;19094;50.972;3.538;2023-03-23T09:01:11;15.00;69.80
32706;DHT22;19094;50.972;3.538;2023-03-23T09:03:37;15.10;69.70
32706;DHT22;19094;50.972;3.538;2023-03-23T09:06:07;15.10;69.40
32706;DHT22;19094;50.972;3.538;2023-03-23T09:08:33;15.20;69.00
32706;DHT22;19094;50.972;3.538;2023-03-23T09:11:06;15.20;69.30
32706;DHT22;19094;50.972;3.538;2023-03-23T09:13:33;15.20;70.30
32706;DHT22;19094;50.972;3.538;2023-03-23T09:15:58;15.10;69.70
32706;DHT22;19094;50.972;3.538;2023-03-23T09:18:24;15.30;69.10
32706;DHT22;19094;50.972;3.538;2023-03-23T09:20:51;15.20;69.40
32706;DHT22;19094;50.972;3.538;2023-03-23T09:23:17;15.30;69.00
32706;DHT22;19094;50.972;3.538;2023-03-23T09:25:43;15.30;69.30
32706;DHT22;19094;50.972;3.538;2023-03-23T09:28:09;15.30;69.60
32706;DHT22;19094;50.972;3.538;2023-03-23T09:30:36;15.40;69.20
32706;DHT22;19094;50.972;3.538;2023-03-23T09:33:04;15.60;68.30
32706;DHT22;19094;50.972;3.538;2023-03-23T09:35:34;15.80;68.10
32706;DHT22;19094;50.972;3.538;2023-03-23T09:38:01;15.90;67.70
32706;DHT22;19094;50.972;3.538;2023-03-23T09:40:47;15.90;66.90
32706;DHT22;19094;50.972;3.538;2023-03-23T09:43:38;16.00;67.50
32706;DHT22;19094;50.972;3.538;2023-03-23T09:48:55;15.90;67.20
32706;DHT22;19094;50.972;3.538;2023-03-23T09:51:51;15.90;67.40
32706;DHT22;19094;50.972;3.538;2023-03-23T09:54:20;15.90;67.00
32706;DHT22;19094;50.972;3.538;2023-03-23T09:56:49;15.70;67.90
32706;DHT22;19094;50.972;3.538;2023-03-23T09:59:21;15.70;68.50
32706;DHT22;19094;50.972;3.538;2023-03-23T10:01:50;15.80;68.10
32706;DHT22;19094;50.972;3.538;2023-03-23T10:04:41;15.90;67.90
32706;DHT22;19094;50.972;3.538;2023-03-23T10:07:14;16.00;67.10
32706;DHT22;19094;50.972;3.538;2023-03-23T10:09:42;16.00;67.30
32706;DHT22;19094;50.972;3.538;2023-03-23T10:25:55;16.10;67.20
32706;DHT22;19094;50.972;3.538;2023-03-23T10:28:35;16.10;66.90
32706;DHT22;19094;50.972;3.538;2023-03-23T10:31:03;16.20;66.90
32706;DHT22;19094;50.972;3.538;2023-03-23T10:33:33;16.10;66.80
32706;DHT22;19094;50.972;3.538;2023-03-23T10:38:37;16.10;67.20
32706;DHT22;19094;50.972;3.538;2023-03-23T10:41:15;16.10;67.50
32706;DHT22;19094;50.972;3.538;2023-03-23T10:43:42;16.10;68.40
32706;DHT22;19094;50.972;3.538;2023-03-23T10:48:54;16.00;69.10
32706;DHT22;19094;50.972;3.538;2023-03-23T10:51:27;16.10;69.20
32706;DHT22;19094;50.972;3.538;2023-03-23T10:54:01;16.20;70.00
32706;DHT22;19094;50.972;3.538;2023-03-23T10:56:37;16.10;69.60
32706;DHT22;19094;50.972;3.538;2023-03-23T10:59:27;16.10;69.50
32706;DHT22;19094;50.972;3.538;2023-03-23T11:01:55;16.10;68.70
32706;DHT22;19094;50.972;3.538;2023-03-23T11:04:22;16.20;68.50
32706;DHT22;19094;50.972;3.538;2023-03-23T11:06:51;16.20;68.30
32706;DHT22;19094;50.972;3.538;2023-03-23T11:09:21;16.20;68.10
32706;DHT22;19094;50.972;3.538;2023-03-23T11:11:54;16.20;68.30
32706;DHT22;19094;50.972;3.538;2023-03-23T11:14:32;16.20;67.50
32706;DHT22;19094;50.972;3.538;2023-03-23T11:17:04;16.20;66.90
32706;DHT22;19094;50.972;3.538;2023-03-23T11:19:34;16.20;67.10
32706;DHT22;19094;50.972;3.538;2023-03-23T11:24:35;16.20;67.20
32706;DHT22;19094;50.972;3.538;2023-03-23T11:27:03;16.00;68.20
32706;DHT22;19094;50.972;3.538;2023-03-23T11:29:32;16.00;68.00
32706;DHT22;19094;50.972;3.538;2023-03-23T11:34:32;16.10;68.60
32706;DHT22;19094;50.972;3.538;2023-03-23T11:37:05;16.20;69.60
32706;DHT22;19094;50.972;3.538;2023-03-23T11:39:35;16.30;71.00
32706;DHT22;19094;50.972;3.538;2023-03-23T11:42:17;16.30;72.00
32706;DHT22;19094;50.972;3.538;2023-03-23T11:44:44;16.40;70.30
32706;DHT22;19094;50.972;3.538;2023-03-23T11:47:23;16.40;69.20
32706;DHT22;19094;50.972;3.538;2023-03-23T11:50:10;16.20;68.20
32706;DHT22;19094;50.972;3.538;2023-03-23T11:58:18;16.40;68.60
32706;DHT22;19094;50.972;3.538;2023-03-23T12:14:56;16.60;67.20
32706;DHT22;19094;50.972;3.538;2023-03-23T12:18:22;16.50;65.70
32706;DHT22;19094;50.972;3.538;2023-03-23T12:20:57;16.40;66.30
32706;DHT22;19094;50.972;3.538;2023-03-23T12:26:01;16.40;66.50
32706;DHT22;19094;50.972;3.538;2023-03-23T12:31:40;16.40;65.60
32706;DHT22;19094;50.972;3.538;2023-03-23T12:36:48;16.60;66.50
32706;DHT22;19094;50.972;3.538;2023-03-23T12:50:18;16.70;64.90
32706;DHT22;19094;50.972;3.538;2023-03-23T12:56:26;16.90;65.30
32706;DHT22;19094;50.972;3.538;2023-03-23T12:58:38;17.00;65.30
32706;DHT22;19094;50.972;3.538;2023-03-23T13:01:24;17.20;63.90
32706;DHT22;19094;50.972;3.538;2023-03-23T13:06:36;17.50;62.50
32706;DHT22;19094;50.972;3.538;2023-03-23T13:11:36;17.70;60.70
32706;DHT22;19094;50.972;3.538;2023-03-23T13:14:28;17.80;59.80
32706;DHT22;19094;50.972;3.538;2023-03-23T13:19:34;17.90;59.70
32706;DHT22;19094;50.972;3.538;2023-03-23T13:24:35;17.80;62.00
32706;DHT22;19094;50.972;3.538;2023-03-23T13:27:01;17.80;63.10
32706;DHT22;19094;50.972;3.538;2023-03-23T13:29:27;17.80;64.30
32706;DHT22;19094;50.972;3.538;2023-03-23T13:32:11;17.70;65.10
32706;DHT22;19094;50.972;3.538;2023-03-23T13:34:39;17.70;63.80
32706;DHT22;19094;50.972;3.538;2023-03-23T13:37:11;17.80;63.70
32706;DHT22;19094;50.972;3.538;2023-03-23T13:39:55;17.80;63.20
32706;DHT22;19094;50.972;3.538;2023-03-23T13:42:31;17.90;61.90
32706;DHT22;19094;50.972;3.538;2023-03-23T13:45:20;18.00;62.50
32706;DHT22;19094;50.972;3.538;2023-03-23T13:47:46;18.20;61.20
32706;DHT22;19094;50.972;3.538;2023-03-23T13:55:22;18.70;62.40
32706;DHT22;19094;50.972;3.538;2023-03-23T14:06:23;19.60;58.40
32706;DHT22;19094;50.972;3.538;2023-03-23T14:11:10;19.80;57.80
32706;DHT22;19094;50.972;3.538;2023-03-23T14:16:20;20.20;57.10
32706;DHT22;19094;50.972;3.538;2023-03-23T14:19:02;20.20;56.40
32706;DHT22;19094;50.972;3.538;2023-03-23T14:21:35;20.10;56.20
32706;DHT22;19094;50.972;3.538;2023-03-23T14:24:28;19.90;57.20
32706;DHT22;19094;50.972;3.538;2023-03-23T14:27:19;19.70;58.50
32706;DHT22;19094;50.972;3.538;2023-03-23T14:29:46;19.60;60.00
32706;DHT22;19094;50.972;3.538;2023-03-23T14:32:23;19.60;60.80
32706;DHT22;19094;50.972;3.538;2023-03-23T14:34:52;19.60;59.80
32706;DHT22;19094;50.972;3.538;2023-03-23T14:37:20;19.70;59.90
32706;DHT22;19094;50.972;3.538;2023-03-23T14:39:53;19.70;59.30
32706;DHT22;19094;50.972;3.538;2023-03-23T14:42:34;19.90;58.80
32706;DHT22;19094;50.972;3.538;2023-03-23T14:45:01;20.10;58.10
32706;DHT22;19094;50.972;3.538;2023-03-23T14:47:50;20.30;58.40
32706;DHT22;19094;50.972;3.538;2023-03-23T14:53:18;20.60;55.80
32706;DHT22;19094;50.972;3.538;2023-03-23T14:55:47;20.70;56.20
32706;DHT22;19094;50.972;3.538;2023-03-23T14:58:20;20.80;56.30
32706;DHT22;19094;50.972;3.538;2023-03-23T15:00:54;20.80;56.10
32706;DHT22;19094;50.972;3.538;2023-03-23T15:03:22;20.80;56.10
32706;DHT22;19094;50.972;3.538;2023-03-23T15:05:53;20.90;55.90
32706;DHT22;19094;50.972;3.538;2023-03-23T15:08:31;20.90;55.70
32706;DHT22;19094;50.972;3.538;2023-03-23T15:13:51;20.40;55.60
32706;DHT22;19094;50.972;3.538;2023-03-23T15:16:28;20.20;56.30
32706;DHT22;19094;50.972;3.538;2023-03-23T15:18:55;20.10;56.60
32706;DHT22;19094;50.972;3.538;2023-03-23T15:21:57;20.00;56.10
32706;DHT22;19094;50.972;3.538;2023-03-23T15:24:38;19.80;57.50
32706;DHT22;19094;50.972;3.538;2023-03-23T15:27:27;19.60;58.10
32706;DHT22;19094;50.972;3.538;2023-03-23T15:29:57;19.40;58.80
32706;DHT22;19094;50.972;3.538;2023-03-23T15:32:31;19.30;59.30
32706;DHT22;19094;50.972;3.538;2023-03-23T15:35:11;19.20;59.90
32706;DHT22;19094;50.972;3.538;2023-03-23T15:37:45;19.00;60.10
32706;DHT22;19094;50.972;3.538;2023-03-23T15:40:22;18.90;60.40
32706;DHT22;19094;50.972;3.538;2023-03-23T15:42:49;18.80;61.60
32706;DHT22;19094;50.972;3.538;2023-03-23T15:45:26;18.70;61.70
32706;DHT22;19094;50.972;3.538;2023-03-23T15:47:52;18.60;62.60
32706;DHT22;19094;50.972;3.538;2023-03-23T15:50:33;18.50;62.10
32706;DHT22;19094;50.972;3.538;2023-03-23T15:53:04;18.40;62.40
32706;DHT22;19094;50.972;3.538;2023-03-23T15:55:38;18.30;62.40
32706;DHT22;19094;50.972;3.538;2023-03-23T15:58:11;18.20;62.40
32706;DHT22;19094;50.972;3.538;2023-03-23T16:00:37;18.10;63.00
32706;DHT22;19094;50.972;3.538;2023-03-23T16:03:12;18.10;63.70
32706;DHT22;19094;50.972;3.538;2023-03-23T16:05:41;18.00;63.20
32706;DHT22;19094;50.972;3.538;2023-03-23T16:08:10;17.90;63.40
32706;DHT22;19094;50.972;3.538;2023-03-23T16:10:36;17.80;63.50
32706;DHT22;19094;50.972;3.538;2023-03-23T16:13:02;17.80;63.70
32706;DHT22;19094;50.972;3.538;2023-03-23T16:15:30;17.80;63.80
32706;DHT22;19094;50.972;3.538;2023-03-23T16:17:55;17.80;63.20
32706;DHT22;19094;50.972;3.538;2023-03-23T16:20:22;17.70;63.20
32706;DHT22;19094;50.972;3.538;2023-03-23T16:22:49;17.70;63.40
32706;DHT22;19094;50.972;3.538;2023-03-23T16:25:16;17.60;63.30
32706;DHT22;19094;50.972;3.538;2023-03-23T16:27:43;17.60;63.60
32706;DHT22;19094;50.972;3.538;2023-03-23T16:30:19;17.60;64.00
32706;DHT22;19094;50.972;3.538;2023-03-23T16:32:45;17.50;63.90
32706;DHT22;19094;50.972;3.538;2023-03-23T16:35:12;17.50;63.90
32706;DHT22;19094;50.972;3.538;2023-03-23T16:37:38;17.60;63.90
32706;DHT22;19094;50.972;3.538;2023-03-23T16:40:05;17.50;63.80
32706;DHT22;19094;50.972;3.538;2023-03-23T16:42:31;17.50;64.10
32706;DHT22;19094;50.972;3.538;2023-03-23T16:44:57;17.50;63.60
32706;DHT22;19094;50.972;3.538;2023-03-23T16:47:23;17.50;64.50
32706;DHT22;19094;50.972;3.538;2023-03-23T16:49:53;17.40;64.00
32706;DHT22;19094;50.972;3.538;2023-03-23T16:52:19;17.40;64.30
32706;DHT22;19094;50.972;3.538;2023-03-23T16:54:45;17.40;64.00
32706;DHT22;19094;50.972;3.538;2023-03-23T16:57:11;17.40;63.90
32706;DHT22;19094;50.972;3.538;2023-03-23T16:59:36;17.30;64.40
32706;DHT22;19094;50.972;3.538;2023-03-23T17:02:02;17.30;64.90
32706;DHT22;19094;50.972;3.538;2023-03-23T17:04:32;17.30;64.60
32706;DHT22;19094;50.972;3.538;2023-03-23T17:06:58;17.30;64.60
32706;DHT22;19094;50.972;3.538;2023-03-23T17:09:27;17.30;64.50
32706;DHT22;19094;50.972;3.538;2023-03-23T17:11:53;17.30;64.70
32706;DHT22;19094;50.972;3.538;2023-03-23T17:14:20;17.30;65.10
32706;DHT22;19094;50.972;3.538;2023-03-23T17:16:46;17.30;64.50
32706;DHT22;19094;50.972;3.538;2023-03-23T17:19:12;17.30;64.70
32706;DHT22;19094;50.972;3.538;2023-03-23T17:21:39;17.30;64.50
32706;DHT22;19094;50.972;3.538;2023-03-23T17:24:05;17.30;64.70
32706;DHT22;19094;50.972;3.538;2023-03-23T17:26:32;17.30;64.80
32706;DHT22;19094;50.972;3.538;2023-03-23T17:28:57;17.30;64.20
32706;DHT22;19094;50.972;3.538;2023-03-23T17:31:23;17.30;64.40
32706;DHT22;19094;50.972;3.538;2023-03-23T17:33:49;17.30;64.00
32706;DHT22;19094;50.972;3.538;2023-03-23T17:36:16;17.30;64.20
32706;DHT22;19094;50.972;3.538;2023-03-23T17:38:42;17.30;64.50
32706;DHT22;19094;50.972;3.538;2023-03-23T17:41:07;17.20;64.70
32706;DHT22;19094;50.972;3.538;2023-03-23T17:43:36;17.20;65.30
32706;DHT22;19094;50.972;3.538;2023-03-23T17:46:05;17.20;64.80
32706;DHT22;19094;50.972;3.538;2023-03-23T17:48:31;17.30;64.60